Ferry Fukuoka2 — JI3703 — position and weather

sailwx.info

Track history (hours):
 
Tides and Currents Weather Stations Pressure Air Temp Water Temp Dewpoint Dewpoint Depression Visibility Wind Speed Wind Dir Waves Ship Positions

Ferry Fukuoka2

Last reported at 2018-Feb-19 05:29 UTC. Time now 2018-Feb-19 06:00 UTC.
Position N 33°52' E 130°59'.

Length 167 m; draft 5.7 m.

Type: Passenger vessel. MMSI: 431301648.

Date/timePositionNaut miles runAvg speedWind from/ knotsBaromVisibWave heightAir tempDewpointWater temp
2018-Feb-19 05:29N 33°52' E 130°59'0 0.0
2018-Feb-19 04:59N 33°52' E 130°59'3 6.0
2018-Feb-19 04:31N 33°53' E 131°02'0 0.2
2018-Feb-19 03:59N 33°53' E 131°03'0 0.1
2018-Feb-19 03:29N 33°53' E 131°02'0 0.0
2018-Feb-19 02:59N 33°53' E 131°02'0 0.0
2018-Feb-19 02:29N 33°53' E 131°02'0 0.0
2018-Feb-19 01:59N 33°53' E 131°02'0 0.0
2018-Feb-19 01:29N 33°53' E 131°02'0 0.0
2018-Feb-19 00:59N 33°53' E 131°02'0 0.0
2018-Feb-19 00:29N 33°53' E 131°02'0 0.0
2018-Feb-18 23:59N 33°53' E 131°02'0 0.0
2018-Feb-18 23:29N 33°53' E 131°02'0 0.0
2018-Feb-18 22:59N 33°53' E 131°02'0 0.1
2018-Feb-18 22:27N 33°53' E 131°03'3 6.6
2018-Feb-18 22:00N 33°52' E 130°59'0 0.1
2018-Feb-18 21:30N 33°52' E 130°59'0 0.0
2018-Feb-18 20:57N 33°52' E 130°59'0 0.0
2018-Feb-18 20:29N 33°52' E 130°59'3 7.1
2018-Feb-18 20:00N 33°54' E 131°03'815.5
2018-Feb-18 19:29N 33°52' E 131°12'1019.9
2018-Feb-18 19:00N 33°50' E 131°24'1120.7
2018-Feb-18 18:30N 33°48' E 131°36'1020.4
2018-Feb-18 18:01N 33°45' E 131°48'1620.5
2018-Feb-18 17:14N 33°43' E 132°06'520.7
2018-Feb-18 16:59N 33°43' E 132°12'1121.4
2018-Feb-18 16:30N 33°47' E 132°24'1122.2
2018-Feb-18 16:01N 33°53' E 132°35'1020.8
2018-Feb-18 15:30N 34°00' E 132°44'7818.0
2018-Feb-18 11:11N 34°25' E 134°13'422.3
2018-Feb-18 10:59N 34°25' E 134°18'1122.0
2018-Feb-18 10:30N 34°28' E 134°31'1121.5
2018-Feb-18 10:00N 34°32' E 134°43'1121.2
2018-Feb-18 09:30N 34°36' E 134°55'1019.3
2018-Feb-18 09:00N 34°36' E 135°06'1020.4
2018-Feb-18 08:31N 34°37' E 135°19'610.7
2018-Feb-18 07:57N 34°37' E 135°26'0 0.0
2018-Feb-18 07:30N 34°37' E 135°26'0 0.0
2018-Feb-18 07:00N 34°37' E 135°26'0 0.0
2018-Feb-18 06:30N 34°37' E 135°26'0 0.0
2018-Feb-18 06:00N 34°37' E 135°26'0 0.0
2018-Feb-18 05:30N 34°37' E 135°26'0 0.0
2018-Feb-18 05:00N 34°37' E 135°26'0 0.0
2018-Feb-18 04:30N 34°37' E 135°26'0 0.0
2018-Feb-18 04:00N 34°37' E 135°26'0 0.0
2018-Feb-18 03:30N 34°37' E 135°26'0 0.0
2018-Feb-18 03:00N 34°37' E 135°26'0 0.0
2018-Feb-18 02:30N 34°37' E 135°26'0 0.0
2018-Feb-18 01:51N 34°37' E 135°26'0 0.0
2018-Feb-18 01:30N 34°37' E 135°26'0 0.0
2018-Feb-18 01:00N 34°37' E 135°26'0 0.0
2018-Feb-18 00:30N 34°37' E 135°26'0 0.0
2018-Feb-18 00:00N 34°37' E 135°26'0 0.0
2018-Feb-17 23:30N 34°37' E 135°26'0 0.0
2018-Feb-17 23:01N 34°37' E 135°26'0 0.0
2018-Feb-17 22:31N 34°37' E 135°26'0 0.0
2018-Feb-17 22:00N 34°37' E 135°26'0 0.0
2018-Feb-17 21:31N 34°37' E 135°26'0 0.0
2018-Feb-17 21:01N 34°37' E 135°26'0 0.0
2018-Feb-17 20:30N 34°37' E 135°26'2 4.5
2018-Feb-17 20:00N 34°38' E 135°23'714.7
2018-Feb-17 19:30N 34°35' E 135°15'1020.4
2018-Feb-17 19:01N 34°36' E 135°02'1121.8
2018-Feb-17 18:30N 34°33' E 134°50'1020.9
2018-Feb-17 18:01N 34°29' E 134°38'1020.4
2018-Feb-17 17:31N 34°26' E 134°26'1020.7
2018-Feb-17 17:00N 34°24' E 134°14'6517.8
2018-Feb-17 13:20N 34°10' E 132°57'921.6
2018-Feb-17 12:56N 34°04' E 132°49'1023.4
2018-Feb-17 12:31N 33°56' E 132°41'1122.4
2018-Feb-17 12:00N 33°49' E 132°31'1222.5
2018-Feb-17 11:27N 33°44' E 132°18'1122.4
2018-Feb-17 10:58N 33°42' E 132°05'1021.7
2018-Feb-17 10:30N 33°44' E 131°53'1121.3
2018-Feb-17 10:00N 33°46' E 131°40'1121.2
2018-Feb-17 09:30N 33°48' E 131°28'1121.2
2018-Feb-17 09:00N 33°50' E 131°15'918.3
2018-Feb-17 08:30N 33°53' E 131°05'5 8.6
2018-Feb-17 07:56N 33°52' E 130°59'0 0.0
2018-Feb-17 07:29N 33°52' E 130°59'0 0.0
2018-Feb-17 06:56N 33°52' E 130°59'0 0.0
2018-Feb-17 06:29N 33°52' E 130°59'0 0.0
2018-Feb-17 05:56N 33°52' E 130°59'0 0.0
2018-Feb-17 05:26N 33°52' E 130°59'0 0.0
2018-Feb-17 04:57N 33°52' E 130°59'3 6.3
2018-Feb-17 04:30N 33°53' E 131°02'0 0.0
2018-Feb-17 04:00N 33°53' E 131°02'0 0.0
2018-Feb-17 03:30N 33°53' E 131°02'0 0.0
2018-Feb-17 03:00N 33°53' E 131°02'0 0.0
2018-Feb-17 02:30N 33°53' E 131°02'0 0.0
2018-Feb-17 02:00N 33°53' E 131°02'0 0.0
2018-Feb-17 01:30N 33°53' E 131°02'0 0.0
2018-Feb-17 00:59N 33°53' E 131°02'0 0.0
2018-Feb-17 00:30N 33°53' E 131°02'0 0.0
2018-Feb-17 00:00N 33°53' E 131°02'0 0.0
2018-Feb-16 23:30N 33°53' E 131°02'0 0.0
2018-Feb-16 23:00N 33°53' E 131°02'0 0.0
2018-Feb-16 22:30N 33°53' E 131°02'3 5.1
2018-Feb-16 21:58N 33°52' E 130°59'0 0.0
2018-Feb-16 21:25N 33°52' E 130°59'0 0.0
2018-Feb-16 20:55N 33°52' E 130°59'0 0.0
2018-Feb-16 20:30N 33°52' E 130°59'3 6.4
2018-Feb-16 20:00N 33°54' E 131°03'815.5
2018-Feb-16 19:31N 33°52' E 131°12'1020.8
2018-Feb-16 19:01N 33°50' E 131°24'1020.7
2018-Feb-16 18:30N 33°48' E 131°36'1020.3
2018-Feb-16 18:01N 33°46' E 131°48'1019.9
2018-Feb-16 17:31N 33°43' E 131°60'1120.9
2018-Feb-16 17:00N 33°43' E 132°12'1122.2
2018-Feb-16 16:30N 33°46' E 132°25'1122.0
2018-Feb-16 16:00N 33°53' E 132°36'1121.5
2018-Feb-16 15:30N 34°01' E 132°45'7017.3
2018-Feb-16 11:28N 34°27' E 134°03'1022.7
2018-Feb-16 11:00N 34°25' E 134°16'1122.1
2018-Feb-16 10:30N 34°28' E 134°28'1121.9
2018-Feb-16 10:00N 34°32' E 134°41'1122.0
2018-Feb-16 09:31N 34°35' E 134°53'1020.2
2018-Feb-16 09:00N 34°36' E 135°06'1121.1
2018-Feb-16 08:30N 34°37' E 135°18'611.4
2018-Feb-16 07:58N 34°37' E 135°26'0 0.0
2018-Feb-16 07:28N 34°37' E 135°26'0 0.0
2018-Feb-16 06:58N 34°37' E 135°26'0 0.0
2018-Feb-16 06:28N 34°37' E 135°26'0 0.0
2018-Feb-16 05:58N 34°37' E 135°26'0 0.0
2018-Feb-16 05:28N 34°37' E 135°26'0 0.0
2018-Feb-16 04:55N 34°37' E 135°26'0 0.0
2018-Feb-16 04:28N 34°37' E 135°26'0 0.0
2018-Feb-16 03:58N 34°37' E 135°26'0 0.0
2018-Feb-16 03:28N 34°37' E 135°26'0 0.0
2018-Feb-16 02:58N 34°37' E 135°26'0 0.0
2018-Feb-16 02:28N 34°37' E 135°26'0 0.0
2018-Feb-16 01:58N 34°37' E 135°26'0 0.0
2018-Feb-16 01:28N 34°37' E 135°26'0 0.0
2018-Feb-16 00:58N 34°37' E 135°26'0 0.0
2018-Feb-16 00:28N 34°37' E 135°26'0 0.0
2018-Feb-15 23:58N 34°37' E 135°26'0 0.0
2018-Feb-15 23:19N 34°37' E 135°26'0 0.0
2018-Feb-15 22:58N 34°37' E 135°26'0 0.0
2018-Feb-15 22:28N 34°37' E 135°26'0 0.0
2018-Feb-15 21:58N 34°37' E 135°26'0 0.0
2018-Feb-15 21:28N 34°37' E 135°26'0 0.0
2018-Feb-15 20:58N 34°37' E 135°26'0 0.0
2018-Feb-15 20:29N 34°37' E 135°26'2 5.1
2018-Feb-15 20:01N 34°38' E 135°23'816.7
2018-Feb-15 19:30N 34°35' E 135°13'1019.7
2018-Feb-15 19:00N 34°37' E 135°02'1020.9
2018-Feb-15 18:30N 34°34' E 134°49'1020.2
2018-Feb-15 18:01N 34°30' E 134°38'1019.7
2018-Feb-15 17:31N 34°26' E 134°27'1019.8
2018-Feb-15 17:00N 34°24' E 134°15'7318.0
2018-Feb-15 12:58N 34°05' E 132°50'1123.1
2018-Feb-15 12:30N 33°57' E 132°42'1222.8
2018-Feb-15 12:00N 33°49' E 132°31'1222.4
2018-Feb-15 11:28N 33°44' E 132°19'1122.2
2018-Feb-15 10:59N 33°42' E 132°06'1122.3
2018-Feb-15 10:30N 33°44' E 131°54'1121.6
2018-Feb-15 10:00N 33°46' E 131°41'1121.3
2018-Feb-15 09:30N 33°48' E 131°28'1121.2
2018-Feb-15 09:00N 33°51' E 131°16'918.6
2018-Feb-15 08:30N 33°53' E 131°05'5 8.4
2018-Feb-15 07:55N 33°52' E 130°59'0 0.0
2018-Feb-15 07:25N 33°52' E 130°59'0 0.0
2018-Feb-15 06:58N 33°52' E 130°59'0 0.0
2018-Feb-15 06:25N 33°52' E 130°59'0 0.0
2018-Feb-15 05:55N 33°52' E 130°59'0 0.0
2018-Feb-15 05:25N 33°52' E 130°59'0 0.0
2018-Feb-15 04:55N 33°52' E 130°59'3 6.5
2018-Feb-15 04:30N 33°53' E 131°02'0 0.3
2018-Feb-15 03:58N 33°53' E 131°02'0 0.0
2018-Feb-15 03:28N 33°53' E 131°02'0 0.0
2018-Feb-15 02:58N 33°53' E 131°02'0 0.0
2018-Feb-15 02:28N 33°53' E 131°02'0 0.1
2018-Feb-15 01:58N 33°53' E 131°02'0 0.0
2018-Feb-15 01:28N 33°53' E 131°02'0 0.0
2018-Feb-15 00:58N 33°53' E 131°02'0 0.0
2018-Feb-15 00:28N 33°53' E 131°02'0 0.0
2018-Feb-14 23:58N 33°53' E 131°02'0 0.0
2018-Feb-14 23:28N 33°53' E 131°02'0 0.0
2018-Feb-14 22:58N 33°53' E 131°02'0 0.2
2018-Feb-14 22:30N 33°53' E 131°02'3 5.5
2018-Feb-14 22:00N 33°52' E 130°59'0 0.1
2018-Feb-14 21:27N 33°52' E 130°59'0 0.0
2018-Feb-14 20:51N 33°52' E 130°59'0 0.0
2018-Feb-14 20:30N 33°52' E 130°59'3 5.4
2018-Feb-14 20:00N 33°54' E 131°02'815.7
2018-Feb-14 19:30N 33°52' E 131°11'1020.4
2018-Feb-14 19:00N 33°50' E 131°24'1020.7
2018-Feb-14 18:30N 33°48' E 131°35'1020.6
2018-Feb-14 18:00N 33°46' E 131°48'1020.4
2018-Feb-14 17:30N 33°44' E 131°60'1119.8
2018-Feb-14 16:57N 33°43' E 132°13'920.9
2018-Feb-14 16:30N 33°46' E 132°24'1120.9
2018-Feb-14 15:57N 33°53' E 132°35'1021.2
2018-Feb-14 15:30N 33°59' E 132°44'7017.6
2018-Feb-14 11:32N 34°26' E 134°02'621.2
2018-Feb-14 11:16N 34°26' E 134°09'622.6
2018-Feb-14 11:00N 34°24' E 134°15'1122.0
2018-Feb-14 10:30N 34°27' E 134°28'1121.8
2018-Feb-14 10:00N 34°31' E 134°41'1122.1
2018-Feb-14 09:31N 34°35' E 134°53'1020.2
2018-Feb-14 09:01N 34°36' E 135°05'1020.9
2018-Feb-14 08:31N 34°37' E 135°18'712.6
2018-Feb-14 07:59N 34°37' E 135°26'0 0.0
2018-Feb-14 07:29N 34°37' E 135°26'0 0.0
2018-Feb-14 06:59N 34°37' E 135°26'0 0.0
2018-Feb-14 06:29N 34°37' E 135°26'0 0.0
2018-Feb-14 05:59N 34°37' E 135°26'0 0.0
2018-Feb-14 05:29N 34°37' E 135°26'0 0.0
2018-Feb-14 04:59N 34°37' E 135°26'0 0.0
2018-Feb-14 04:29N 34°37' E 135°26'0 0.0
2018-Feb-14 03:59N 34°37' E 135°26'0 0.0
2018-Feb-14 03:29N 34°37' E 135°26'0 0.0
2018-Feb-14 02:59N 34°37' E 135°26'0 0.0
2018-Feb-14 02:29N 34°37' E 135°26'0 0.0
2018-Feb-14 01:59N 34°37' E 135°26'0 0.0
2018-Feb-14 01:29N 34°37' E 135°26'0 0.0
2018-Feb-14 00:59N 34°37' E 135°26'0 0.0
2018-Feb-14 00:29N 34°37' E 135°26'0 0.0
2018-Feb-13 23:59N 34°37' E 135°26'0 0.0
2018-Feb-13 23:30N 34°37' E 135°26'4 7.3
2018-Feb-13 23:00N 34°37' E 135°21'1020.2
2018-Feb-13 22:30N 34°35' E 135°09'918.7
2018-Feb-13 22:00N 34°37' E 134°58'1019.8
2018-Feb-13 21:30N 34°32' E 134°47'1121.2
2018-Feb-13 21:00N 34°28' E 134°35'1121.8
2018-Feb-13 20:30N 34°25' E 134°23'1220.9
2018-Feb-13 19:57N 34°26' E 134°09'6816.5
2018-Feb-13 15:51N 34°05' E 132°51'719.1
2018-Feb-13 15:31N 33°60' E 132°46'1019.3
2018-Feb-13 15:01N 33°53' E 132°37'1121.0
2018-Feb-13 14:30N 33°47' E 132°26'1221.6
2018-Feb-13 13:55N 33°42' E 132°13'921.6
2018-Feb-13 13:29N 33°42' E 132°01'1122.7
2018-Feb-13 13:00N 33°44' E 131°49'1122.8
2018-Feb-13 12:30N 33°47' E 131°35'1122.5
2018-Feb-13 12:00N 33°49' E 131°22'1121.7
2018-Feb-13 11:30N 33°52' E 131°09'815.4
2018-Feb-13 11:00N 33°52' E 131°00'1 1.3
2018-Feb-13 10:27N 33°52' E 130°59'0 0.0
2018-Feb-13 09:57N 33°52' E 130°59'0 0.0
2018-Feb-13 09:27N 33°52' E 130°59'0 0.0
2018-Feb-13 08:57N 33°52' E 130°59'0 0.0
2018-Feb-13 08:28N 33°52' E 130°59'0 0.0
2018-Feb-13 07:57N 33°52' E 130°59'0 0.0
2018-Feb-13 07:27N 33°52' E 130°59'0 0.0
2018-Feb-13 06:57N 33°52' E 130°59'0 0.0
2018-Feb-13 06:27N 33°52' E 130°59'0 0.0
2018-Feb-13 05:57N 33°52' E 130°59'0 0.0
2018-Feb-13 05:27N 33°52' E 130°59'0 0.0
2018-Feb-13 04:57N 33°52' E 130°59'0 0.0
2018-Feb-13 04:28N 33°52' E 130°59'0 0.0
2018-Feb-13 03:57N 33°52' E 130°59'0 0.0
2018-Feb-13 03:28N 33°52' E 130°59'0 0.0
2018-Feb-13 02:58N 33°52' E 130°59'0 0.0
2018-Feb-13 02:27N 33°52' E 130°59'0 0.0
2018-Feb-13 01:58N 33°52' E 130°59'0 0.0
2018-Feb-13 01:27N 33°52' E 130°59'0 0.0
2018-Feb-13 00:57N 33°52' E 130°59'0 0.0
2018-Feb-13 00:27N 33°52' E 130°59'0 0.0
2018-Feb-12 23:58N 33°52' E 130°59'0 0.0
2018-Feb-12 23:30N 33°52' E 130°59'2 4.9
2018-Feb-12 23:00N 33°53' E 131°02'714.5
2018-Feb-12 22:30N 33°53' E 131°11'1019.6
2018-Feb-12 22:00N 33°50' E 131°22'1020.2
2018-Feb-12 21:30N 33°48' E 131°34'1120.2
2018-Feb-12 20:58N 33°46' E 131°46'1019.9
2018-Feb-12 20:30N 33°44' E 131°58'1119.7
2018-Feb-12 19:57N 33°43' E 132°11'920.0
2018-Feb-12 19:30N 33°46' E 132°21'1019.9
2018-Feb-12 19:00N 33°50' E 132°31'1020.3
2018-Feb-12 18:30N 33°57' E 132°41'1020.5
2018-Feb-12 18:00N 34°04' E 132°49'7117.7
2018-Feb-12 13:59N 34°25' E 134°11'1021.0
2018-Feb-12 13:30N 34°26' E 134°24'1122.3
2018-Feb-12 13:00N 34°30' E 134°36'1121.9
2018-Feb-12 12:31N 34°34' E 134°48'1121.7
2018-Feb-12 12:00N 34°37' E 135°01'1121.1
2018-Feb-12 11:30N 34°36' E 135°14'918.7
2018-Feb-12 11:01N 34°37' E 135°25'1 1.4
2018-Feb-12 10:28N 34°37' E 135°26'0 0.0
2018-Feb-12 09:58N 34°37' E 135°26'0 0.0
2018-Feb-12 09:28N 34°37' E 135°26'0 0.0
2018-Feb-12 08:58N 34°37' E 135°26'0 0.0
2018-Feb-12 08:28N 34°37' E 135°26'0 0.0
2018-Feb-12 07:58N 34°37' E 135°26'0 0.0
2018-Feb-12 07:28N 34°37' E 135°26'0 0.0
2018-Feb-12 06:58N 34°37' E 135°26'0 0.0
2018-Feb-12 06:28N 34°37' E 135°26'0 0.0
2018-Feb-12 05:58N 34°37' E 135°26'0 0.0
2018-Feb-12 05:28N 34°37' E 135°26'0 0.0
2018-Feb-12 04:58N 34°37' E 135°26'0 0.0
2018-Feb-12 04:28N 34°37' E 135°26'0 0.0
2018-Feb-12 03:58N 34°37' E 135°26'0 0.0
2018-Feb-12 03:28N 34°37' E 135°26'0 0.0
2018-Feb-12 02:58N 34°37' E 135°26'0 0.0
2018-Feb-12 02:28N 34°37' E 135°26'0 0.0
2018-Feb-12 01:58N 34°37' E 135°26'0 0.0
2018-Feb-12 01:28N 34°37' E 135°26'0 0.0
2018-Feb-12 00:58N 34°37' E 135°26'0 0.0
2018-Feb-12 00:28N 34°37' E 135°26'0 0.0
2018-Feb-11 23:55N 34°37' E 135°26'0 0.0
2018-Feb-11 23:30N 34°37' E 135°26'3 5.8
2018-Feb-11 23:01N 34°38' E 135°22'611.6
2018-Feb-11 22:30N 34°35' E 135°16'816.0
2018-Feb-11 22:00N 34°35' E 135°06'917.9
2018-Feb-11 21:30N 34°36' E 134°55'1019.9
2018-Feb-11 21:01N 34°31' E 134°44'1121.1
2018-Feb-11 20:30N 34°28' E 134°32'1121.4
2018-Feb-11 20:00N 34°24' E 134°20'1020.4
2018-Feb-11 19:30N 34°26' E 134°08'7117.4
2018-Feb-11 15:25N 34°01' E 132°47'921.8
2018-Feb-11 15:00N 33°55' E 132°39'1121.9
2018-Feb-11 14:30N 33°48' E 132°29'1222.2
2018-Feb-11 13:59N 33°44' E 132°17'1722.0
2018-Feb-11 13:14N 33°43' E 131°57'523.0
2018-Feb-11 13:00N 33°44' E 131°51'1223.3
2018-Feb-11 12:31N 33°47' E 131°37'1122.7
2018-Feb-11 12:00N 33°49' E 131°24'1122.4
2018-Feb-11 11:30N 33°52' E 131°10'816.2
2018-Feb-11 11:00N 33°53' E 131°01'1 2.4
2018-Feb-11 10:25N 33°52' E 130°59'0 0.0
2018-Feb-11 09:55N 33°52' E 130°59'0 0.0
2018-Feb-11 09:25N 33°52' E 130°59'0 0.0
2018-Feb-11 08:55N 33°52' E 130°59'0 0.0
2018-Feb-11 08:25N 33°52' E 130°59'0 0.0
2018-Feb-11 07:55N 33°52' E 130°59'0 0.0
2018-Feb-11 07:25N 33°52' E 130°59'0 0.0
2018-Feb-11 06:49N 33°52' E 130°59'0 0.0
2018-Feb-11 06:25N 33°52' E 130°59'0 0.0
2018-Feb-11 05:55N 33°52' E 130°59'0 0.0
2018-Feb-11 05:25N 33°52' E 130°59'0 0.0
2018-Feb-11 04:55N 33°52' E 130°59'0 0.0
2018-Feb-11 04:25N 33°52' E 130°59'0 0.0
2018-Feb-11 03:55N 33°52' E 130°59'0 0.0
2018-Feb-11 03:19N 33°52' E 130°59'0 0.0
2018-Feb-11 02:55N 33°52' E 130°59'0 0.0
2018-Feb-11 02:25N 33°52' E 130°59'0 0.0
2018-Feb-11 01:55N 33°52' E 130°59'0 0.0
2018-Feb-11 01:25N 33°52' E 130°59'0 0.0
2018-Feb-11 00:58N 33°52' E 130°59'0 0.0
2018-Feb-11 00:25N 33°52' E 130°59'0 0.0
2018-Feb-10 23:58N 33°52' E 130°59'0 0.0
2018-Feb-10 23:30N 33°52' E 130°59'3 7.0
2018-Feb-10 23:00N 33°54' E 131°03'816.4
2018-Feb-10 22:30N 33°52' E 131°12'1019.4
2018-Feb-10 22:00N 33°50' E 131°24'1019.4
2018-Feb-10 21:30N 33°48' E 131°35'1019.7
2018-Feb-10 21:00N 33°45' E 131°47'1020.2
2018-Feb-10 20:30N 33°44' E 131°59'1120.3
2018-Feb-10 19:57N 33°43' E 132°12'1020.8
2018-Feb-10 19:28N 33°46' E 132°23'1020.7
2018-Feb-10 18:59N 33°52' E 132°34'1021.3
2018-Feb-10 18:30N 33°58' E 132°43'7617.6
2018-Feb-10 14:13N 34°26' E 134°08'420.5
2018-Feb-10 13:59N 34°24' E 134°13'1021.0
2018-Feb-10 13:30N 34°27' E 134°25'1121.8
2018-Feb-10 13:01N 34°31' E 134°37'1121.0
2018-Feb-10 12:31N 34°35' E 134°49'1020.6
2018-Feb-10 12:00N 34°37' E 135°01'1021.0
2018-Feb-10 11:31N 34°37' E 135°14'918.3
2018-Feb-10 11:01N 34°37' E 135°25'1 1.2
2018-Feb-10 10:28N 34°37' E 135°26'0 0.0
2018-Feb-10 09:58N 34°37' E 135°26'0 0.0
2018-Feb-10 09:28N 34°37' E 135°26'0 0.0
2018-Feb-10 08:58N 34°37' E 135°26'0 0.0
2018-Feb-10 08:28N 34°37' E 135°26'0 0.0
2018-Feb-10 07:58N 34°37' E 135°26'0 0.0
2018-Feb-10 07:28N 34°37' E 135°26'0 0.0
2018-Feb-10 06:58N 34°37' E 135°26'0 0.0
2018-Feb-10 06:28N 34°37' E 135°26'0 0.0
2018-Feb-10 05:58N 34°37' E 135°26'0 0.0
2018-Feb-10 05:28N 34°37' E 135°26'0 0.0
2018-Feb-10 04:58N 34°37' E 135°26'0 0.0
2018-Feb-10 04:28N 34°37' E 135°26'0 0.0
2018-Feb-10 03:58N 34°37' E 135°26'0 0.0
2018-Feb-10 03:28N 34°37' E 135°26'0 0.0
2018-Feb-10 02:58N 34°37' E 135°26'0 0.0
2018-Feb-10 02:28N 34°37' E 135°26'0 0.0
2018-Feb-10 01:58N 34°37' E 135°26'0 0.0
2018-Feb-10 01:28N 34°37' E 135°26'0 0.0
2018-Feb-10 00:58N 34°37' E 135°26'0 0.0
2018-Feb-10 00:28N 34°37' E 135°26'0 0.0
2018-Feb-09 23:58N 34°37' E 135°26'0 0.0
2018-Feb-09 23:29N 34°37' E 135°26'2 5.2
2018-Feb-09 23:00N 34°38' E 135°23'312.9
2018-Feb-09 22:46N 34°36' E 135°20'416.8
2018-Feb-09 22:30N 34°35' E 135°15'1020.3
2018-Feb-09 22:01N 34°36' E 135°02'1019.6
2018-Feb-09 21:30N 34°34' E 134°51'1121.2
2018-Feb-09 21:00N 34°30' E 134°39'1121.7
2018-Feb-09 20:30N 34°26' E 134°27'1121.4
2018-Feb-09 20:00N 34°24' E 134°14'8817.5
2018-Feb-09 15:00N 33°52' E 132°35'7919.8
2018-Feb-09 11:01N 33°52' E 131°00'  
Track history (hours):
 
Tides and Currents Weather Stations Pressure Air Temp Water Temp Dewpoint Dewpoint Depression Visibility Wind Speed Wind Dir Waves Ship Positions

Ferry Fukuoka2

Last reported at 2018-Feb-19 05:29 UTC. Time now 2018-Feb-19 06:00 UTC.
Position N 33°52' E 130°59'.

Length 167 m; draft 5.7 m.

Type: Passenger vessel. MMSI: 431301648.

Date/timePositionNaut miles runAvg speedWind from/ knotsBaromVisibWave heightAir tempDewpointWater temp
2018-Feb-19 05:29N 33°52' E 130°59'0 0.0
2018-Feb-19 04:59N 33°52' E 130°59'3 6.0
2018-Feb-19 04:31N 33°53' E 131°02'0 0.2
2018-Feb-19 03:59N 33°53' E 131°03'0 0.1
2018-Feb-19 03:29N 33°53' E 131°02'0 0.0
2018-Feb-19 02:59N 33°53' E 131°02'0 0.0
2018-Feb-19 02:29N 33°53' E 131°02'0 0.0
2018-Feb-19 01:59N 33°53' E 131°02'0 0.0
2018-Feb-19 01:29N 33°53' E 131°02'0 0.0
2018-Feb-19 00:59N 33°53' E 131°02'0 0.0
2018-Feb-19 00:29N 33°53' E 131°02'0 0.0
2018-Feb-18 23:59N 33°53' E 131°02'0 0.0
2018-Feb-18 23:29N 33°53' E 131°02'0 0.0
2018-Feb-18 22:59N 33°53' E 131°02'0 0.1
2018-Feb-18 22:27N 33°53' E 131°03'3 6.6
2018-Feb-18 22:00N 33°52' E 130°59'0 0.1
2018-Feb-18 21:30N 33°52' E 130°59'0 0.0
2018-Feb-18 20:57N 33°52' E 130°59'0 0.0
2018-Feb-18 20:29N 33°52' E 130°59'3 7.1
2018-Feb-18 20:00N 33°54' E 131°03'815.5
2018-Feb-18 19:29N 33°52' E 131°12'1019.9
2018-Feb-18 19:00N 33°50' E 131°24'1120.7
2018-Feb-18 18:30N 33°48' E 131°36'1020.4
2018-Feb-18 18:01N 33°45' E 131°48'1620.5
2018-Feb-18 17:14N 33°43' E 132°06'520.7
2018-Feb-18 16:59N 33°43' E 132°12'1121.4
2018-Feb-18 16:30N 33°47' E 132°24'1122.2
2018-Feb-18 16:01N 33°53' E 132°35'1020.8
2018-Feb-18 15:30N 34°00' E 132°44'7818.0
2018-Feb-18 11:11N 34°25' E 134°13'422.3
2018-Feb-18 10:59N 34°25' E 134°18'1122.0
2018-Feb-18 10:30N 34°28' E 134°31'1121.5
2018-Feb-18 10:00N 34°32' E 134°43'1121.2
2018-Feb-18 09:30N 34°36' E 134°55'1019.3
2018-Feb-18 09:00N 34°36' E 135°06'1020.4
2018-Feb-18 08:31N 34°37' E 135°19'610.7
2018-Feb-18 07:57N 34°37' E 135°26'0 0.0
2018-Feb-18 07:30N 34°37' E 135°26'0 0.0
2018-Feb-18 07:00N 34°37' E 135°26'0 0.0
2018-Feb-18 06:30N 34°37' E 135°26'0 0.0
2018-Feb-18 06:00N 34°37' E 135°26'0 0.0
2018-Feb-18 05:30N 34°37' E 135°26'0 0.0
2018-Feb-18 05:00N 34°37' E 135°26'0 0.0
2018-Feb-18 04:30N 34°37' E 135°26'0 0.0
2018-Feb-18 04:00N 34°37' E 135°26'0 0.0
2018-Feb-18 03:30N 34°37' E 135°26'0 0.0
2018-Feb-18 03:00N 34°37' E 135°26'0 0.0
2018-Feb-18 02:30N 34°37' E 135°26'0 0.0
2018-Feb-18 01:51N 34°37' E 135°26'0 0.0
2018-Feb-18 01:30N 34°37' E 135°26'0 0.0
2018-Feb-18 01:00N 34°37' E 135°26'0 0.0
2018-Feb-18 00:30N 34°37' E 135°26'0 0.0
2018-Feb-18 00:00N 34°37' E 135°26'0 0.0
2018-Feb-17 23:30N 34°37' E 135°26'0 0.0
2018-Feb-17 23:01N 34°37' E 135°26'0 0.0
2018-Feb-17 22:31N 34°37' E 135°26'0 0.0
2018-Feb-17 22:00N 34°37' E 135°26'0 0.0
2018-Feb-17 21:31N 34°37' E 135°26'0 0.0
2018-Feb-17 21:01N 34°37' E 135°26'0 0.0
2018-Feb-17 20:30N 34°37' E 135°26'2 4.5
2018-Feb-17 20:00N 34°38' E 135°23'714.7
2018-Feb-17 19:30N 34°35' E 135°15'1020.4
2018-Feb-17 19:01N 34°36' E 135°02'1121.8
2018-Feb-17 18:30N 34°33' E 134°50'1020.9
2018-Feb-17 18:01N 34°29' E 134°38'1020.4
2018-Feb-17 17:31N 34°26' E 134°26'1020.7
2018-Feb-17 17:00N 34°24' E 134°14'6517.8
2018-Feb-17 13:20N 34°10' E 132°57'921.6
2018-Feb-17 12:56N 34°04' E 132°49'1023.4
2018-Feb-17 12:31N 33°56' E 132°41'1122.4
2018-Feb-17 12:00N 33°49' E 132°31'1222.5
2018-Feb-17 11:27N 33°44' E 132°18'1122.4
2018-Feb-17 10:58N 33°42' E 132°05'1021.7
2018-Feb-17 10:30N 33°44' E 131°53'1121.3
2018-Feb-17 10:00N 33°46' E 131°40'1121.2
2018-Feb-17 09:30N 33°48' E 131°28'1121.2
2018-Feb-17 09:00N 33°50' E 131°15'918.3
2018-Feb-17 08:30N 33°53' E 131°05'5 8.6
2018-Feb-17 07:56N 33°52' E 130°59'0 0.0
2018-Feb-17 07:29N 33°52' E 130°59'0 0.0
2018-Feb-17 06:56N 33°52' E 130°59'0 0.0
2018-Feb-17 06:29N 33°52' E 130°59'0 0.0
2018-Feb-17 05:56N 33°52' E 130°59'0 0.0
2018-Feb-17 05:26N 33°52' E 130°59'0 0.0
2018-Feb-17 04:57N 33°52' E 130°59'3 6.3
2018-Feb-17 04:30N 33°53' E 131°02'0 0.0
2018-Feb-17 04:00N 33°53' E 131°02'0 0.0
2018-Feb-17 03:30N 33°53' E 131°02'0 0.0
2018-Feb-17 03:00N 33°53' E 131°02'0 0.0
2018-Feb-17 02:30N 33°53' E 131°02'0 0.0
2018-Feb-17 02:00N 33°53' E 131°02'0 0.0
2018-Feb-17 01:30N 33°53' E 131°02'0 0.0
2018-Feb-17 00:59N 33°53' E 131°02'0 0.0
2018-Feb-17 00:30N 33°53' E 131°02'0 0.0
2018-Feb-17 00:00N 33°53' E 131°02'0 0.0
2018-Feb-16 23:30N 33°53' E 131°02'0 0.0
2018-Feb-16 23:00N 33°53' E 131°02'0 0.0
2018-Feb-16 22:30N 33°53' E 131°02'3 5.1
2018-Feb-16 21:58N 33°52' E 130°59'0 0.0
2018-Feb-16 21:25N 33°52' E 130°59'0 0.0
2018-Feb-16 20:55N 33°52' E 130°59'0 0.0
2018-Feb-16 20:30N 33°52' E 130°59'3 6.4
2018-Feb-16 20:00N 33°54' E 131°03'815.5
2018-Feb-16 19:31N 33°52' E 131°12'1020.8
2018-Feb-16 19:01N 33°50' E 131°24'1020.7
2018-Feb-16 18:30N 33°48' E 131°36'1020.3
2018-Feb-16 18:01N 33°46' E 131°48'1019.9
2018-Feb-16 17:31N 33°43' E 131°60'1120.9
2018-Feb-16 17:00N 33°43' E 132°12'1122.2
2018-Feb-16 16:30N 33°46' E 132°25'1122.0
2018-Feb-16 16:00N 33°53' E 132°36'1121.5
2018-Feb-16 15:30N 34°01' E 132°45'7017.3
2018-Feb-16 11:28N 34°27' E 134°03'1022.7
2018-Feb-16 11:00N 34°25' E 134°16'1122.1
2018-Feb-16 10:30N 34°28' E 134°28'1121.9
2018-Feb-16 10:00N 34°32' E 134°41'1122.0
2018-Feb-16 09:31N 34°35' E 134°53'1020.2
2018-Feb-16 09:00N 34°36' E 135°06'1121.1
2018-Feb-16 08:30N 34°37' E 135°18'611.4
2018-Feb-16 07:58N 34°37' E 135°26'0 0.0
2018-Feb-16 07:28N 34°37' E 135°26'0 0.0
2018-Feb-16 06:58N 34°37' E 135°26'0 0.0
2018-Feb-16 06:28N 34°37' E 135°26'0 0.0
2018-Feb-16 05:58N 34°37' E 135°26'0 0.0
2018-Feb-16 05:28N 34°37' E 135°26'0 0.0
2018-Feb-16 04:55N 34°37' E 135°26'0 0.0
2018-Feb-16 04:28N 34°37' E 135°26'0 0.0
2018-Feb-16 03:58N 34°37' E 135°26'0 0.0
2018-Feb-16 03:28N 34°37' E 135°26'0 0.0
2018-Feb-16 02:58N 34°37' E 135°26'0 0.0
2018-Feb-16 02:28N 34°37' E 135°26'0 0.0
2018-Feb-16 01:58N 34°37' E 135°26'0 0.0
2018-Feb-16 01:28N 34°37' E 135°26'0 0.0
2018-Feb-16 00:58N 34°37' E 135°26'0 0.0
2018-Feb-16 00:28N 34°37' E 135°26'0 0.0
2018-Feb-15 23:58N 34°37' E 135°26'0 0.0
2018-Feb-15 23:19N 34°37' E 135°26'0 0.0
2018-Feb-15 22:58N 34°37' E 135°26'0 0.0
2018-Feb-15 22:28N 34°37' E 135°26'0 0.0
2018-Feb-15 21:58N 34°37' E 135°26'0 0.0
2018-Feb-15 21:28N 34°37' E 135°26'0 0.0
2018-Feb-15 20:58N 34°37' E 135°26'0 0.0
2018-Feb-15 20:29N 34°37' E 135°26'2 5.1
2018-Feb-15 20:01N 34°38' E 135°23'816.7
2018-Feb-15 19:30N 34°35' E 135°13'1019.7
2018-Feb-15 19:00N 34°37' E 135°02'1020.9
2018-Feb-15 18:30N 34°34' E 134°49'1020.2
2018-Feb-15 18:01N 34°30' E 134°38'1019.7
2018-Feb-15 17:31N 34°26' E 134°27'1019.8
2018-Feb-15 17:00N 34°24' E 134°15'7318.0
2018-Feb-15 12:58N 34°05' E 132°50'1123.1
2018-Feb-15 12:30N 33°57' E 132°42'1222.8
2018-Feb-15 12:00N 33°49' E 132°31'1222.4
2018-Feb-15 11:28N 33°44' E 132°19'1122.2
2018-Feb-15 10:59N 33°42' E 132°06'1122.3
2018-Feb-15 10:30N 33°44' E 131°54'1121.6
2018-Feb-15 10:00N 33°46' E 131°41'1121.3
2018-Feb-15 09:30N 33°48' E 131°28'1121.2
2018-Feb-15 09:00N 33°51' E 131°16'918.6
2018-Feb-15 08:30N 33°53' E 131°05'5 8.4
2018-Feb-15 07:55N 33°52' E 130°59'0 0.0
2018-Feb-15 07:25N 33°52' E 130°59'0 0.0
2018-Feb-15 06:58N 33°52' E 130°59'0 0.0
2018-Feb-15 06:25N 33°52' E 130°59'0 0.0
2018-Feb-15 05:55N 33°52' E 130°59'0 0.0
2018-Feb-15 05:25N 33°52' E 130°59'0 0.0
2018-Feb-15 04:55N 33°52' E 130°59'3 6.5
2018-Feb-15 04:30N 33°53' E 131°02'0 0.3
2018-Feb-15 03:58N 33°53' E 131°02'0 0.0
2018-Feb-15 03:28N 33°53' E 131°02'0 0.0
2018-Feb-15 02:58N 33°53' E 131°02'0 0.0
2018-Feb-15 02:28N 33°53' E 131°02'0 0.1
2018-Feb-15 01:58N 33°53' E 131°02'0 0.0
2018-Feb-15 01:28N 33°53' E 131°02'0 0.0
2018-Feb-15 00:58N 33°53' E 131°02'0 0.0
2018-Feb-15 00:28N 33°53' E 131°02'0 0.0
2018-Feb-14 23:58N 33°53' E 131°02'0 0.0
2018-Feb-14 23:28N 33°53' E 131°02'0 0.0
2018-Feb-14 22:58N 33°53' E 131°02'0 0.2
2018-Feb-14 22:30N 33°53' E 131°02'3 5.5
2018-Feb-14 22:00N 33°52' E 130°59'0 0.1
2018-Feb-14 21:27N 33°52' E 130°59'0 0.0
2018-Feb-14 20:51N 33°52' E 130°59'0 0.0
2018-Feb-14 20:30N 33°52' E 130°59'3 5.4
2018-Feb-14 20:00N 33°54' E 131°02'815.7
2018-Feb-14 19:30N 33°52' E 131°11'1020.4
2018-Feb-14 19:00N 33°50' E 131°24'1020.7
2018-Feb-14 18:30N 33°48' E 131°35'1020.6
2018-Feb-14 18:00N 33°46' E 131°48'1020.4
2018-Feb-14 17:30N 33°44' E 131°60'1119.8
2018-Feb-14 16:57N 33°43' E 132°13'920.9
2018-Feb-14 16:30N 33°46' E 132°24'1120.9
2018-Feb-14 15:57N 33°53' E 132°35'1021.2
2018-Feb-14 15:30N 33°59' E 132°44'7017.6
2018-Feb-14 11:32N 34°26' E 134°02'621.2
2018-Feb-14 11:16N 34°26' E 134°09'622.6
2018-Feb-14 11:00N 34°24' E 134°15'1122.0
2018-Feb-14 10:30N 34°27' E 134°28'1121.8
2018-Feb-14 10:00N 34°31' E 134°41'1122.1
2018-Feb-14 09:31N 34°35' E 134°53'1020.2
2018-Feb-14 09:01N 34°36' E 135°05'1020.9
2018-Feb-14 08:31N 34°37' E 135°18'712.6
2018-Feb-14 07:59N 34°37' E 135°26'0 0.0
2018-Feb-14 07:29N 34°37' E 135°26'0 0.0
2018-Feb-14 06:59N 34°37' E 135°26'0 0.0
2018-Feb-14 06:29N 34°37' E 135°26'0 0.0
2018-Feb-14 05:59N 34°37' E 135°26'0 0.0
2018-Feb-14 05:29N 34°37' E 135°26'0 0.0
2018-Feb-14 04:59N 34°37' E 135°26'0 0.0
2018-Feb-14 04:29N 34°37' E 135°26'0 0.0
2018-Feb-14 03:59N 34°37' E 135°26'0 0.0
2018-Feb-14 03:29N 34°37' E 135°26'0 0.0
2018-Feb-14 02:59N 34°37' E 135°26'0 0.0
2018-Feb-14 02:29N 34°37' E 135°26'0 0.0
2018-Feb-14 01:59N 34°37' E 135°26'0 0.0
2018-Feb-14 01:29N 34°37' E 135°26'0 0.0
2018-Feb-14 00:59N 34°37' E 135°26'0 0.0
2018-Feb-14 00:29N 34°37' E 135°26'0 0.0
2018-Feb-13 23:59N 34°37' E 135°26'0 0.0
2018-Feb-13 23:30N 34°37' E 135°26'4 7.3
2018-Feb-13 23:00N 34°37' E 135°21'1020.2
2018-Feb-13 22:30N 34°35' E 135°09'918.7
2018-Feb-13 22:00N 34°37' E 134°58'1019.8
2018-Feb-13 21:30N 34°32' E 134°47'1121.2
2018-Feb-13 21:00N 34°28' E 134°35'1121.8
2018-Feb-13 20:30N 34°25' E 134°23'1220.9
2018-Feb-13 19:57N 34°26' E 134°09'6816.5
2018-Feb-13 15:51N 34°05' E 132°51'719.1
2018-Feb-13 15:31N 33°60' E 132°46'1019.3
2018-Feb-13 15:01N 33°53' E 132°37'1121.0
2018-Feb-13 14:30N 33°47' E 132°26'1221.6
2018-Feb-13 13:55N 33°42' E 132°13'921.6
2018-Feb-13 13:29N 33°42' E 132°01'1122.7
2018-Feb-13 13:00N 33°44' E 131°49'1122.8
2018-Feb-13 12:30N 33°47' E 131°35'1122.5
2018-Feb-13 12:00N 33°49' E 131°22'1121.7
2018-Feb-13 11:30N 33°52' E 131°09'815.4
2018-Feb-13 11:00N 33°52' E 131°00'1 1.3
2018-Feb-13 10:27N 33°52' E 130°59'0 0.0
2018-Feb-13 09:57N 33°52' E 130°59'0 0.0
2018-Feb-13 09:27N 33°52' E 130°59'0 0.0
2018-Feb-13 08:57N 33°52' E 130°59'0 0.0
2018-Feb-13 08:28N 33°52' E 130°59'0 0.0
2018-Feb-13 07:57N 33°52' E 130°59'0 0.0
2018-Feb-13 07:27N 33°52' E 130°59'0 0.0
2018-Feb-13 06:57N 33°52' E 130°59'0 0.0
2018-Feb-13 06:27N 33°52' E 130°59'0 0.0
2018-Feb-13 05:57N 33°52' E 130°59'0 0.0
2018-Feb-13 05:27N 33°52' E 130°59'0 0.0
2018-Feb-13 04:57N 33°52' E 130°59'0 0.0
2018-Feb-13 04:28N 33°52' E 130°59'0 0.0
2018-Feb-13 03:57N 33°52' E 130°59'0 0.0
2018-Feb-13 03:28N 33°52' E 130°59'0 0.0
2018-Feb-13 02:58N 33°52' E 130°59'0 0.0
2018-Feb-13 02:27N 33°52' E 130°59'0 0.0
2018-Feb-13 01:58N 33°52' E 130°59'0 0.0
2018-Feb-13 01:27N 33°52' E 130°59'0 0.0
2018-Feb-13 00:57N 33°52' E 130°59'0 0.0
2018-Feb-13 00:27N 33°52' E 130°59'0 0.0
2018-Feb-12 23:58N 33°52' E 130°59'0 0.0
2018-Feb-12 23:30N 33°52' E 130°59'2 4.9
2018-Feb-12 23:00N 33°53' E 131°02'714.5
2018-Feb-12 22:30N 33°53' E 131°11'1019.6
2018-Feb-12 22:00N 33°50' E 131°22'1020.2
2018-Feb-12 21:30N 33°48' E 131°34'1120.2
2018-Feb-12 20:58N 33°46' E 131°46'1019.9
2018-Feb-12 20:30N 33°44' E 131°58'1119.7
2018-Feb-12 19:57N 33°43' E 132°11'920.0
2018-Feb-12 19:30N 33°46' E 132°21'1019.9
2018-Feb-12 19:00N 33°50' E 132°31'1020.3
2018-Feb-12 18:30N 33°57' E 132°41'1020.5
2018-Feb-12 18:00N 34°04' E 132°49'7117.7
2018-Feb-12 13:59N 34°25' E 134°11'1021.0
2018-Feb-12 13:30N 34°26' E 134°24'1122.3
2018-Feb-12 13:00N 34°30' E 134°36'1121.9
2018-Feb-12 12:31N 34°34' E 134°48'1121.7
2018-Feb-12 12:00N 34°37' E 135°01'1121.1
2018-Feb-12 11:30N 34°36' E 135°14'918.7
2018-Feb-12 11:01N 34°37' E 135°25'1 1.4
2018-Feb-12 10:28N 34°37' E 135°26'0 0.0
2018-Feb-12 09:58N 34°37' E 135°26'0 0.0
2018-Feb-12 09:28N 34°37' E 135°26'0 0.0
2018-Feb-12 08:58N 34°37' E 135°26'0 0.0
2018-Feb-12 08:28N 34°37' E 135°26'0 0.0
2018-Feb-12 07:58N 34°37' E 135°26'0 0.0
2018-Feb-12 07:28N 34°37' E 135°26'0 0.0
2018-Feb-12 06:58N 34°37' E 135°26'0 0.0
2018-Feb-12 06:28N 34°37' E 135°26'0 0.0
2018-Feb-12 05:58N 34°37' E 135°26'0 0.0
2018-Feb-12 05:28N 34°37' E 135°26'0 0.0
2018-Feb-12 04:58N 34°37' E 135°26'0 0.0
2018-Feb-12 04:28N 34°37' E 135°26'0 0.0
2018-Feb-12 03:58N 34°37' E 135°26'0 0.0
2018-Feb-12 03:28N 34°37' E 135°26'0 0.0
2018-Feb-12 02:58N 34°37' E 135°26'0 0.0
2018-Feb-12 02:28N 34°37' E 135°26'0 0.0
2018-Feb-12 01:58N 34°37' E 135°26'0 0.0
2018-Feb-12 01:28N 34°37' E 135°26'0 0.0
2018-Feb-12 00:58N 34°37' E 135°26'0 0.0
2018-Feb-12 00:28N 34°37' E 135°26'0 0.0
2018-Feb-11 23:55N 34°37' E 135°26'0 0.0
2018-Feb-11 23:30N 34°37' E 135°26'3 5.8
2018-Feb-11 23:01N 34°38' E 135°22'611.6
2018-Feb-11 22:30N 34°35' E 135°16'816.0
2018-Feb-11 22:00N 34°35' E 135°06'917.9
2018-Feb-11 21:30N 34°36' E 134°55'1019.9
2018-Feb-11 21:01N 34°31' E 134°44'1121.1
2018-Feb-11 20:30N 34°28' E 134°32'1121.4
2018-Feb-11 20:00N 34°24' E 134°20'1020.4
2018-Feb-11 19:30N 34°26' E 134°08'7117.4
2018-Feb-11 15:25N 34°01' E 132°47'921.8
2018-Feb-11 15:00N 33°55' E 132°39'1121.9
2018-Feb-11 14:30N 33°48' E 132°29'1222.2
2018-Feb-11 13:59N 33°44' E 132°17'1722.0
2018-Feb-11 13:14N 33°43' E 131°57'523.0
2018-Feb-11 13:00N 33°44' E 131°51'1223.3
2018-Feb-11 12:31N 33°47' E 131°37'1122.7
2018-Feb-11 12:00N 33°49' E 131°24'1122.4
2018-Feb-11 11:30N 33°52' E 131°10'816.2
2018-Feb-11 11:00N 33°53' E 131°01'1 2.4
2018-Feb-11 10:25N 33°52' E 130°59'0 0.0
2018-Feb-11 09:55N 33°52' E 130°59'0 0.0
2018-Feb-11 09:25N 33°52' E 130°59'0 0.0
2018-Feb-11 08:55N 33°52' E 130°59'0 0.0
2018-Feb-11 08:25N 33°52' E 130°59'0 0.0
2018-Feb-11 07:55N 33°52' E 130°59'0 0.0
2018-Feb-11 07:25N 33°52' E 130°59'0 0.0
2018-Feb-11 06:49N 33°52' E 130°59'0 0.0
2018-Feb-11 06:25N 33°52' E 130°59'0 0.0
2018-Feb-11 05:55N 33°52' E 130°59'0 0.0
2018-Feb-11 05:25N 33°52' E 130°59'0 0.0
2018-Feb-11 04:55N 33°52' E 130°59'0 0.0
2018-Feb-11 04:25N 33°52' E 130°59'0 0.0
2018-Feb-11 03:55N 33°52' E 130°59'0 0.0
2018-Feb-11 03:19N 33°52' E 130°59'0 0.0
2018-Feb-11 02:55N 33°52' E 130°59'0 0.0
2018-Feb-11 02:25N 33°52' E 130°59'0 0.0
2018-Feb-11 01:55N 33°52' E 130°59'0 0.0
2018-Feb-11 01:25N 33°52' E 130°59'0 0.0
2018-Feb-11 00:58N 33°52' E 130°59'0 0.0
2018-Feb-11 00:25N 33°52' E 130°59'0 0.0
2018-Feb-10 23:58N 33°52' E 130°59'0 0.0
2018-Feb-10 23:30N 33°52' E 130°59'3 7.0
2018-Feb-10 23:00N 33°54' E 131°03'816.4
2018-Feb-10 22:30N 33°52' E 131°12'1019.4
2018-Feb-10 22:00N 33°50' E 131°24'1019.4
2018-Feb-10 21:30N 33°48' E 131°35'1019.7
2018-Feb-10 21:00N 33°45' E 131°47'1020.2
2018-Feb-10 20:30N 33°44' E 131°59'1120.3
2018-Feb-10 19:57N 33°43' E 132°12'1020.8
2018-Feb-10 19:28N 33°46' E 132°23'1020.7
2018-Feb-10 18:59N 33°52' E 132°34'1021.3
2018-Feb-10 18:30N 33°58' E 132°43'7617.6
2018-Feb-10 14:13N 34°26' E 134°08'420.5
2018-Feb-10 13:59N 34°24' E 134°13'1021.0
2018-Feb-10 13:30N 34°27' E 134°25'1121.8
2018-Feb-10 13:01N 34°31' E 134°37'1121.0
2018-Feb-10 12:31N 34°35' E 134°49'1020.6
2018-Feb-10 12:00N 34°37' E 135°01'1021.0
2018-Feb-10 11:31N 34°37' E 135°14'918.3
2018-Feb-10 11:01N 34°37' E 135°25'1 1.2
2018-Feb-10 10:28N 34°37' E 135°26'0 0.0
2018-Feb-10 09:58N 34°37' E 135°26'0 0.0
2018-Feb-10 09:28N 34°37' E 135°26'0 0.0
2018-Feb-10 08:58N 34°37' E 135°26'0 0.0
2018-Feb-10 08:28N 34°37' E 135°26'0 0.0
2018-Feb-10 07:58N 34°37' E 135°26'0 0.0
2018-Feb-10 07:28N 34°37' E 135°26'0 0.0
2018-Feb-10 06:58N 34°37' E 135°26'0 0.0
2018-Feb-10 06:28N 34°37' E 135°26'0 0.0
2018-Feb-10 05:58N 34°37' E 135°26'0 0.0
2018-Feb-10 05:28N 34°37' E 135°26'0 0.0
2018-Feb-10 04:58N 34°37' E 135°26'0 0.0
2018-Feb-10 04:28N 34°37' E 135°26'0 0.0
2018-Feb-10 03:58N 34°37' E 135°26'0 0.0
2018-Feb-10 03:28N 34°37' E 135°26'0 0.0
2018-Feb-10 02:58N 34°37' E 135°26'0 0.0
2018-Feb-10 02:28N 34°37' E 135°26'0 0.0
2018-Feb-10 01:58N 34°37' E 135°26'0 0.0
2018-Feb-10 01:28N 34°37' E 135°26'0 0.0
2018-Feb-10 00:58N 34°37' E 135°26'0 0.0
2018-Feb-10 00:28N 34°37' E 135°26'0 0.0
2018-Feb-09 23:58N 34°37' E 135°26'0 0.0
2018-Feb-09 23:29N 34°37' E 135°26'2 5.2
2018-Feb-09 23:00N 34°38' E 135°23'312.9
2018-Feb-09 22:46N 34°36' E 135°20'416.8
2018-Feb-09 22:30N 34°35' E 135°15'1020.3
2018-Feb-09 22:01N 34°36' E 135°02'1019.6
2018-Feb-09 21:30N 34°34' E 134°51'1121.2
2018-Feb-09 21:00N 34°30' E 134°39'1121.7
2018-Feb-09 20:30N 34°26' E 134°27'1121.4
2018-Feb-09 20:00N 34°24' E 134°14'8817.5
2018-Feb-09 15:00N 33°52' E 132°35'7919.8
2018-Feb-09 11:01N 33°52' E 131°00'  

Dump ship's entire track history